Time;durP1;ratioP1;P1;durP2;ratioP2;P2;SDS_P1;SDS_P2;PMS_P1;PMS_P2;Temp;Humidity;BMP_temperature;BMP_pressure;BME280_temperature;BME280_humidity;BME280_pressure;Samples;Min_cycle;Max_cycle;Signal;HPM_P1;HPM_P2
2021/10/27 00:00:07;;;;;;;6.85;6.22;;;7.70;99.90;;;;;;6123754;23;20242;-83
2021/10/27 00:02:33;;;;;;;7.03;6.32;;;7.70;99.90;;;;;;6123312;23;20262;-82
2021/10/27 00:05:00;;;;;;;7.55;6.97;;;7.60;99.90;;;;;;6124475;23;20179;-82
2021/10/27 00:07:28;;;;;;;6.95;6.30;;;7.60;99.90;;;;;;6105027;23;20207;-83
2021/10/27 00:09:55;;;;;;;6.97;6.18;;;7.60;99.90;;;;;;6107795;23;20188;-82
2021/10/27 00:12:22;;;;;;;7.13;6.50;;;7.50;99.90;;;;;;6118802;23;20186;-82
2021/10/27 00:14:49;;;;;;;7.38;6.55;;;7.50;99.90;;;;;;6118065;23;20236;-83
2021/10/27 00:17:16;;;;;;;6.35;5.80;;;7.50;99.90;;;;;;6110569;23;20211;-81
2021/10/27 00:19:42;;;;;;;7.70;7.00;;;7.40;99.90;;;;;;6110225;23;20176;-82
2021/10/27 00:22:10;;;;;;;7.03;6.35;;;7.50;99.90;;;;;;6117925;23;20291;-81
2021/10/27 00:24:38;;;;;;;7.20;6.57;;;7.50;99.90;;;;;;6118600;23;20184;-82
2021/10/27 00:27:06;;;;;;;8.20;7.47;;;7.50;99.90;;;;;;6118143;23;20210;-83
2021/10/27 00:29:33;;;;;;;8.15;6.07;;;7.50;99.90;;;;;;6117404;23;20207;-81
2021/10/27 00:32:00;;;;;;;9.80;7.07;;;7.40;99.90;;;;;;6117727;23;20239;-82
2021/10/27 00:34:27;;;;;;;7.75;7.05;;;7.40;99.90;;;;;;6117756;23;20180;-83
2021/10/27 00:36:53;;;;;;;8.10;7.50;;;7.30;99.90;;;;;;6117560;23;20181;-83
2021/10/27 00:39:20;;;;;;;7.95;7.15;;;7.30;99.90;;;;;;6117934;23;20185;-82
2021/10/27 00:41:49;;;;;;;9.00;8.13;;;7.30;99.90;;;;;;6111867;23;20188;-82
2021/10/27 00:44:20;;;;;;;12.43;9.15;;;7.10;99.90;;;;;;6102090;23;20204;-82
2021/10/27 00:46:47;;;;;;;10.60;9.40;;;7.10;99.90;;;;;;6101341;23;20216;-82
2021/10/27 00:49:14;;;;;;;9.90;9.07;;;7.00;99.90;;;;;;6101370;23;20315;-81
2021/10/27 00:51:41;;;;;;;10.38;9.32;;;7.00;99.90;;;;;;6101640;23;20671;-82
2021/10/27 00:54:08;;;;;;;9.90;9.00;;;7.00;99.90;;;;;;6101956;23;20177;-82
2021/10/27 00:56:35;;;;;;;10.18;9.18;;;7.10;99.90;;;;;;6100842;23;20189;-82
2021/10/27 00:59:05;;;;;;;10.85;9.75;;;7.10;99.90;;;;;;6101483;23;20184;-82
2021/10/27 01:01:32;;;;;;;12.40;9.27;;;7.10;99.90;;;;;;6101396;23;20168;-82
2021/10/27 01:03:59;;;;;;;8.68;7.75;;;7.10;99.90;;;;;;6101319;23;20207;-82
2021/10/27 01:06:26;;;;;;;12.95;10.00;;;7.10;99.90;;;;;;6101123;23;20184;-82
2021/10/27 01:08:52;;;;;;;10.90;8.00;;;7.10;99.90;;;;;;6101550;23;20543;-81
2021/10/27 01:11:19;;;;;;;11.27;8.05;;;7.10;99.90;;;;;;6101146;23;20640;-81
2021/10/27 01:13:47;;;;;;;8.38;7.50;;;7.10;99.90;;;;;;6102059;23;20188;-83
2021/10/27 01:16:15;;;;;;;10.18;9.18;;;7.10;99.90;;;;;;6101762;23;20184;-81
2021/10/27 01:18:42;;;;;;;9.23;8.35;;;7.10;99.90;;;;;;6101757;23;20216;-81
2021/10/27 01:21:10;;;;;;;10.38;9.18;;;7.10;99.90;;;;;;6101776;23;20181;-81
2021/10/27 01:23:37;;;;;;;9.63;8.80;;;7.10;99.90;;;;;;6101746;23;20201;-81
2021/10/27 01:26:06;;;;;;;8.30;7.45;;;7.20;99.90;;;;;;6100885;23;20184;-83
2021/10/27 01:28:37;;;;;;;8.85;7.93;;;7.20;99.90;;;;;;6101248;23;20208;-83
2021/10/27 01:31:04;;;;;;;10.38;9.57;;;7.20;99.90;;;;;;6101367;23;20169;-82
2021/10/27 01:33:31;;;;;;;8.95;8.15;;;7.20;99.90;;;;;;6100906;23;20180;-83
2021/10/27 01:35:58;;;;;;;8.75;7.95;;;7.20;99.90;;;;;;6100420;23;20184;-82
2021/10/27 01:38:26;;;;;;;8.50;7.80;;;7.20;99.90;;;;;;6100743;23;20722;-82
2021/10/27 01:40:52;;;;;;;11.80;9.85;;;7.10;99.90;;;;;;6101349;23;20187;-83
2021/10/27 01:43:19;;;;;;;10.60;8.50;;;7.10;99.90;;;;;;6101262;23;20205;-83
2021/10/27 01:45:46;;;;;;;12.77;11.55;;;7.10;99.90;;;;;;6100998;23;20180;-83
2021/10/27 01:48:13;;;;;;;12.55;9.35;;;7.10;99.90;;;;;;6100531;23;20212;-83
2021/10/27 01:50:40;;;;;;;11.50;10.10;;;7.10;99.90;;;;;;6101070;23;20681;-82
2021/10/27 01:53:06;;;;;;;8.90;8.00;;;7.00;99.90;;;;;;6101310;23;20184;-83
2021/10/27 01:55:35;;;;;;;12.27;9.80;;;7.00;99.90;;;;;;6100938;23;20645;-81
2021/10/27 01:58:01;;;;;;;9.10;8.27;;;7.00;99.90;;;;;;6101002;23;20686;-82
2021/10/27 02:00:28;;;;;;;9.40;8.45;;;7.00;99.90;;;;;;6101588;23;20180;-83
2021/10/27 02:02:55;;;;;;;11.77;9.52;;;7.00;99.90;;;;;;6100457;23;20204;-83
2021/10/27 02:05:22;;;;;;;9.15;8.35;;;7.00;99.90;;;;;;6100997;23;20184;-82
2021/10/27 02:07:49;;;;;;;12.38;11.18;;;6.90;99.90;;;;;;6112940;23;20205;-82
2021/10/27 02:10:15;;;;;;;9.43;8.55;;;6.80;99.90;;;;;;6114143;23;20644;-84
2021/10/27 02:12:44;;;;;;;11.40;10.30;;;6.80;99.90;;;;;;6115244;23;20191;-81
2021/10/27 02:15:12;;;;;;;13.82;12.52;;;6.80;99.90;;;;;;6113804;23;20645;-81
2021/10/27 02:17:39;;;;;;;11.63;10.63;;;6.80;99.90;;;;;;6114769;23;20204;-82
2021/10/27 02:20:07;;;;;;;13.15;11.85;;;6.80;99.90;;;;;;6114065;23;20221;-83
2021/10/27 02:22:34;;;;;;;13.63;12.30;;;6.90;99.90;;;;;;6114709;23;20186;-83
2021/10/27 02:25:01;;;;;;;13.98;11.15;;;6.90;99.90;;;;;;6114106;23;20184;-83
2021/10/27 02:27:28;;;;;;;11.50;10.38;;;6.90;99.90;;;;;;6114361;23;20230;-84
2021/10/27 02:29:56;;;;;;;12.57;11.15;;;6.90;99.90;;;;;;6115512;23;20551;-82
2021/10/27 02:32:23;;;;;;;10.65;9.63;;;6.90;99.90;;;;;;6114725;23;20180;-83
2021/10/27 02:34:49;;;;;;;11.45;9.68;;;6.80;99.90;;;;;;6114815;23;20522;-82
2021/10/27 02:37:16;;;;;;;10.23;9.15;;;6.80;99.90;;;;;;6114518;23;20204;-83
2021/10/27 02:39:43;;;;;;;11.52;10.52;;;6.80;99.90;;;;;;6114956;23;20212;-81
2021/10/27 02:42:10;;;;;;;10.80;9.88;;;6.80;99.90;;;;;;6115181;23;20511;-84
2021/10/27 02:44:37;;;;;;;10.75;9.75;;;6.80;99.90;;;;;;6115675;23;20204;-82
2021/10/27 02:47:05;;;;;;;9.40;8.48;;;6.70;99.90;;;;;;6115013;23;20222;-82
2021/10/27 02:49:32;;;;;;;11.35;10.20;;;6.70;99.90;;;;;;6115584;23;20185;-83
2021/10/27 02:51:59;;;;;;;10.27;9.48;;;6.70;99.90;;;;;;6115467;23;20195;-83
2021/10/27 02:54:25;;;;;;;10.48;9.30;;;6.70;99.90;;;;;;6115458;23;20191;-82
2021/10/27 02:56:52;;;;;;;10.80;9.68;;;6.70;99.90;;;;;;6115557;23;20184;-83
2021/10/27 02:59:19;;;;;;;10.85;9.30;;;6.60;99.90;;;;;;6116795;23;20176;-83
2021/10/27 03:01:46;;;;;;;9.77;8.88;;;6.60;99.90;;;;;;6115840;23;20199;-82
2021/10/27 03:04:14;;;;;;;9.95;9.05;;;6.60;99.90;;;;;;6116124;23;20214;-82
2021/10/27 03:06:41;;;;;;;11.57;10.38;;;6.60;99.90;;;;;;6116389;23;20184;-82
2021/10/27 03:09:08;;;;;;;11.00;10.00;;;6.60;99.90;;;;;;6115673;23;20180;-82
2021/10/27 03:11:34;;;;;;;13.07;11.77;;;6.60;99.90;;;;;;6113893;23;20184;-83
2021/10/27 03:14:01;;;;;;;12.13;11.02;;;6.60;99.90;;;;;;6113463;23;20186;-83
2021/10/27 03:16:28;;;;;;;12.15;10.95;;;6.50;99.90;;;;;;6114315;23;20185;-80
2021/10/27 03:18:54;;;;;;;11.55;10.50;;;6.50;99.90;;;;;;6114767;23;20712;-82
2021/10/27 03:21:23;;;;;;;12.38;11.07;;;6.50;99.90;;;;;;6114120;23;20185;-80
2021/10/27 03:23:49;;;;;;;12.45;11.30;;;6.50;99.90;;;;;;6114833;23;20230;-82
2021/10/27 03:26:16;;;;;;;10.80;9.70;;;6.40;99.90;;;;;;6113271;23;20656;-81
2021/10/27 03:28:43;;;;;;;12.57;11.50;;;6.40;99.90;;;;;;6114055;23;20200;-83
2021/10/27 03:31:10;;;;;;;10.27;9.40;;;6.30;99.90;;;;;;6113494;23;20185;-83
2021/10/27 03:33:36;;;;;;;12.07;10.88;;;6.30;99.90;;;;;;6113947;23;20177;-81
2021/10/27 03:36:03;;;;;;;13.07;11.88;;;6.30;99.90;;;;;;6112530;23;20185;-81
2021/10/27 03:38:32;;;;;;;13.68;12.38;;;6.30;99.90;;;;;;6113286;23;20265;-82
2021/10/27 03:40:58;;;;;;;13.65;11.88;;;6.40;99.90;;;;;;6113838;23;20663;-80
2021/10/27 03:43:25;;;;;;;12.48;11.32;;;6.30;99.90;;;;;;6114727;23;20204;-80
2021/10/27 03:45:52;;;;;;;13.70;12.20;;;6.30;99.90;;;;;;6115549;23;20205;-83
2021/10/27 03:48:19;;;;;;;12.60;11.40;;;6.30;99.90;;;;;;6114618;23;20213;-83
2021/10/27 03:50:46;;;;;;;12.80;11.48;;;6.30;99.90;;;;;;6114811;23;20199;-81
2021/10/27 03:53:13;;;;;;;12.38;11.25;;;6.20;99.90;;;;;;6115245;23;20187;-82
2021/10/27 03:55:41;;;;;;;12.95;11.75;;;6.30;99.90;;;;;;6114826;23;20193;-82
2021/10/27 03:58:08;;;;;;;13.88;12.65;;;6.20;99.90;;;;;;6114811;23;20204;-83
2021/10/27 04:00:36;;;;;;;12.30;11.20;;;6.20;99.90;;;;;;6115162;23;20199;-81
2021/10/27 04:03:03;;;;;;;16.20;11.70;;;6.20;99.90;;;;;;6114862;23;20184;-81
2021/10/27 04:05:31;;;;;;;13.00;11.90;;;6.20;99.90;;;;;;6114329;23;20529;-82
2021/10/27 04:07:57;;;;;;;13.75;12.55;;;6.20;99.90;;;;;;6115563;23;20204;-82
2021/10/27 04:10:24;;;;;;;12.65;11.45;;;6.20;99.90;;;;;;6115238;23;20180;-83
2021/10/27 04:12:52;;;;;;;11.40;10.40;;;6.20;99.90;;;;;;6115269;23;20690;-80
2021/10/27 04:15:19;;;;;;;13.85;12.35;;;6.20;99.90;;;;;;6114589;23;20179;-82
2021/10/27 04:17:46;;;;;;;11.80;10.60;;;6.10;99.90;;;;;;6115243;23;20208;-81
2021/10/27 04:20:12;;;;;;;12.43;11.32;;;6.10;99.90;;;;;;6114633;23;20181;-82
2021/10/27 04:22:41;;;;;;;12.55;11.40;;;6.10;99.90;;;;;;6115479;23;20184;-82
2021/10/27 04:25:10;;;;;;;12.88;10.57;;;6.10;99.90;;;;;;6115633;23;20200;-81
2021/10/27 04:27:37;;;;;;;13.18;12.00;;;6.10;99.90;;;;;;6115687;23;20200;-83
2021/10/27 04:30:08;;;;;;;13.10;11.10;;;6.10;99.90;;;;;;6116408;23;20243;-81
2021/10/27 04:32:35;;;;;;;12.13;11.13;;;6.10;99.90;;;;;;6115645;23;20165;-82
2021/10/27 04:35:01;;;;;;;13.05;11.93;;;6.10;99.90;;;;;;6116165;23;20370;-82
2021/10/27 04:37:32;;;;;;;12.40;11.27;;;6.10;99.90;;;;;;6115559;23;20204;-80
2021/10/27 04:39:58;;;;;;;12.00;10.85;;;6.10;99.90;;;;;;6116111;23;20168;-83
2021/10/27 04:42:25;;;;;;;11.65;10.55;;;6.10;99.90;;;;;;6112942;23;20185;-81
2021/10/27 04:44:52;;;;;;;12.80;11.50;;;6.10;99.90;;;;;;6112859;23;20196;-80
2021/10/27 04:47:20;;;;;;;12.00;10.80;;;6.00;99.90;;;;;;6111778;23;20212;-81
2021/10/27 04:49:47;;;;;;;11.55;10.32;;;6.00;99.90;;;;;;6112487;23;20192;-82
2021/10/27 04:52:13;;;;;;;10.95;9.85;;;6.00;99.90;;;;;;6111780;23;20189;-82
2021/10/27 04:54:42;;;;;;;10.90;9.85;;;6.00;99.90;;;;;;6113176;23;20511;-81
2021/10/27 04:57:09;;;;;;;9.77;8.98;;;6.00;99.90;;;;;;6111526;23;20205;-82
2021/10/27 04:59:40;;;;;;;10.68;9.73;;;6.00;99.90;;;;;;6114659;23;20662;-81
2021/10/27 05:02:07;;;;;;;10.63;9.25;;;6.00;99.90;;;;;;6116697;23;20200;-81
2021/10/27 05:04:36;;;;;;;10.80;9.98;;;6.00;99.90;;;;;;6115727;23;20211;-82
2021/10/27 05:07:03;;;;;;;11.20;10.07;;;5.90;99.90;;;;;;6115769;23;20204;-83
2021/10/27 05:09:31;;;;;;;10.00;9.00;;;5.90;99.90;;;;;;6115402;23;20191;-84
2021/10/27 05:11:58;;;;;;;9.15;8.32;;;5.80;99.90;;;;;;6115008;23;20191;-84
2021/10/27 05:14:25;;;;;;;7.40;6.70;;;5.80;99.90;;;;;;6115126;23;20177;-82
2021/10/27 05:16:51;;;;;;;9.02;8.20;;;5.80;99.90;;;;;;6114435;23;20187;-84
2021/10/27 05:19:18;;;;;;;9.73;8.88;;;5.80;99.90;;;;;;6114072;23;20241;-83
2021/10/27 05:21:47;;;;;;;9.82;8.95;;;5.70;99.90;;;;;;6115261;23;20187;-82
2021/10/27 05:24:14;;;;;;;8.30;7.65;;;5.70;99.90;;;;;;6123045;23;20210;-79
2021/10/27 05:26:41;;;;;;;7.00;6.40;;;5.70;99.90;;;;;;6123189;23;20354;-81
2021/10/27 05:29:07;;;;;;;8.50;7.70;;;5.70;99.90;;;;;;6123791;23;20186;-81
2021/10/27 05:31:34;;;;;;;7.00;6.50;;;5.70;99.90;;;;;;6119972;23;20198;-82
2021/10/27 05:34:01;;;;;;;7.22;6.55;;;5.70;99.90;;;;;;6114494;23;20241;-83
2021/10/27 05:36:28;;;;;;;8.05;7.35;;;5.60;99.90;;;;;;6112733;23;20184;-85
2021/10/27 05:38:56;;;;;;;8.35;7.45;;;5.70;99.90;;;;;;6112783;23;20204;-83
2021/10/27 05:41:23;;;;;;;7.88;7.10;;;5.60;99.90;;;;;;6111711;23;20179;-85
2021/10/27 05:43:50;;;;;;;8.55;7.85;;;5.60;99.90;;;;;;6112042;23;20191;-82
2021/10/27 05:46:20;;;;;;;9.20;7.18;;;5.60;99.90;;;;;;6112621;23;20188;-83
2021/10/27 05:48:51;;;;;;;8.02;7.43;;;5.70;99.90;;;;;;6111524;23;20308;-83
2021/10/27 05:51:23;;;;;;;8.77;7.97;;;5.60;99.90;;;;;;6112556;23;20169;-81
2021/10/27 05:56:35;;;;;;;9.88;8.98;;;5.70;99.90;;;;;;6110698;23;20189;-82
2021/10/27 05:59:02;;;;;;;11.32;8.68;;;5.60;99.90;;;;;;6107568;23;20205;-79
2021/10/27 06:01:29;;;;;;;9.80;8.20;;;5.60;99.90;;;;;;6099314;23;20184;-78
2021/10/27 06:03:56;;;;;;;9.38;8.43;;;5.70;99.90;;;;;;6099837;23;20260;-79
2021/10/27 06:06:22;;;;;;;8.52;7.68;;;5.60;99.90;;;;;;6098624;23;20653;-78
2021/10/27 06:08:52;;;;;;;9.25;8.32;;;5.70;99.90;;;;;;6098976;23;20204;-79
2021/10/27 06:11:19;;;;;;;10.77;9.73;;;5.70;99.90;;;;;;6102626;23;20271;-80
2021/10/27 06:13:47;;;;;;;9.15;8.43;;;5.70;99.90;;;;;;6103386;23;20184;-80
2021/10/27 06:16:14;;;;;;;12.73;11.43;;;5.70;99.90;;;;;;6102902;23;20190;-80
2021/10/27 06:18:42;;;;;;;10.38;9.38;;;5.80;99.90;;;;;;6099815;23;20204;-81
2021/10/27 06:21:09;;;;;;;9.75;8.45;;;5.80;99.90;;;;;;6098251;23;20187;-80
2021/10/27 06:23:38;;;;;;;11.90;10.75;;;5.90;99.90;;;;;;6097483;23;20185;-80
2021/10/27 06:26:05;;;;;;;11.50;9.30;;;5.90;99.90;;;;;;6098018;23;20188;-81
2021/10/27 06:28:37;;;;;;;11.68;10.48;;;5.90;99.90;;;;;;6098058;23;20207;-80
2021/10/27 06:31:10;;;;;;;13.00;11.27;;;5.90;99.90;;;;;;6098603;23;20176;-79
2021/10/27 06:33:50;;;;;;;11.32;9.85;;;5.90;99.90;;;;;;6097785;23;20168;-80
2021/10/27 06:36:22;;;;;;;12.25;11.05;;;6.00;99.90;;;;;;6097702;23;20164;-79
2021/10/27 06:39:07;;;;;;;11.60;10.40;;;6.10;99.90;;;;;;6098097;23;20283;-81
2021/10/27 06:47:03;;;;;;;11.20;10.20;;;6.40;99.90;;;;;;6096893;23;20215;-79
2021/10/27 06:49:31;;;;;;;16.58;13.38;;;6.40;99.90;;;;;;6097865;23;20180;-79
2021/10/27 06:51:58;;;;;;;16.30;14.50;;;6.50;99.90;;;;;;6098206;23;20185;-79
2021/10/27 06:54:25;;;;;;;19.70;17.75;;;6.70;99.90;;;;;;6097841;23;20256;-80
2021/10/27 06:56:52;;;;;;;22.02;16.15;;;6.80;99.90;;;;;;6097366;23;20191;-80
2021/10/27 06:59:26;;;;;;;18.23;15.13;;;6.90;99.90;;;;;;6098298;23;20184;-79
2021/10/27 07:02:15;;;;;;;13.80;12.60;;;7.10;99.90;;;;;;6097793;23;20189;-79
2021/10/27 07:04:58;;;;;;;12.90;11.80;;;7.20;99.90;;;;;;6097891;23;20270;-79
2021/10/27 07:15:37;;;;;;;22.98;20.23;;;7.60;99.90;;;;;;6101781;23;20183;-80
2021/10/27 07:18:05;;;;;;;17.88;16.08;;;7.60;99.90;;;;;;6099372;23;20257;-80
2021/10/27 07:20:33;;;;;;;13.13;11.82;;;7.60;99.90;;;;;;6098541;23;20204;-79
2021/10/27 07:23:01;;;;;;;9.70;8.90;;;7.60;99.90;;;;;;6098126;23;20513;-81
2021/10/27 07:25:28;;;;;;;10.40;9.57;;;7.50;99.90;;;;;;6098058;23;20400;-79
2021/10/27 07:27:55;;;;;;;10.90;9.90;;;7.60;99.90;;;;;;6098432;23;20513;-81
2021/10/27 07:30:22;;;;;;;12.32;10.80;;;7.70;99.90;;;;;;6099215;23;20811;-80
2021/10/27 07:32:52;;;;;;;14.23;11.75;;;7.70;99.90;;;;;;6098659;23;20259;-80
2021/10/27 07:35:26;;;;;;;12.60;11.32;;;7.90;99.90;;;;;;6098825;23;20165;-82
2021/10/27 07:40:42;;;;;;;13.32;11.93;;;8.10;99.90;;;;;;6100841;23;20596;-80
2021/10/27 07:43:13;;;;;;;13.45;12.15;;;8.20;99.90;;;;;;6100439;23;20192;-82
2021/10/27 07:45:41;;;;;;;14.20;11.60;;;8.30;99.90;;;;;;6100740;23;20521;-83
2021/10/27 07:48:08;;;;;;;13.73;12.32;;;8.30;99.90;;;;;;6100628;23;20212;-80
2021/10/27 07:50:36;;;;;;;12.55;11.35;;;8.40;99.90;;;;;;6101422;23;20633;-81
2021/10/27 07:53:07;;;;;;;15.65;14.27;;;8.50;99.90;;;;;;6100439;23;20184;-80
2021/10/27 07:55:34;;;;;;;14.68;13.18;;;8.50;99.90;;;;;;6101798;23;20194;-80
2021/10/27 07:58:02;;;;;;;14.38;12.23;;;8.60;99.90;;;;;;6106784;23;20205;-82
2021/10/27 08:00:30;;;;;;;15.32;12.85;;;8.70;99.90;;;;;;6107457;23;20190;-79
2021/10/27 08:03:01;;;;;;;13.57;11.52;;;8.70;99.90;;;;;;6107316;23;20573;-80
2021/10/27 08:05:30;;;;;;;13.52;12.30;;;8.70;99.90;;;;;;6105824;23;20203;-80
2021/10/27 08:07:58;;;;;;;11.45;10.38;;;8.80;99.90;;;;;;6101795;23;20205;-81
2021/10/27 08:10:29;;;;;;;11.98;10.98;;;8.80;99.90;;;;;;6099679;23;20186;-80
2021/10/27 08:12:56;;;;;;;11.27;10.25;;;8.80;99.90;;;;;;6099617;23;20176;-82
2021/10/27 08:15:22;;;;;;;11.88;10.77;;;8.90;99.90;;;;;;6099184;23;20189;-80
2021/10/27 08:17:50;;;;;;;10.80;9.80;;;8.90;99.90;;;;;;6099055;23;20212;-81
2021/10/27 08:20:19;;;;;;;11.40;10.40;;;9.10;99.90;;;;;;6099575;23;20211;-81
2021/10/27 08:22:47;;;;;;;11.13;10.13;;;9.20;99.90;;;;;;6099746;23;20298;-80
2021/10/27 08:25:22;;;;;;;12.57;11.48;;;9.30;99.90;;;;;;6099859;23;20201;-80
2021/10/27 08:27:51;;;;;;;14.20;13.00;;;9.50;99.90;;;;;;6100098;23;20210;-81
2021/10/27 08:30:20;;;;;;;13.80;12.32;;;9.60;99.90;;;;;;6099847;23;20423;-80
2021/10/27 08:32:52;;;;;;;15.10;13.65;;;9.70;99.90;;;;;;6100085;23;20240;-81
2021/10/27 08:35:19;;;;;;;15.40;13.80;;;9.90;99.90;;;;;;6098673;23;20211;-81
2021/10/27 08:37:47;;;;;;;14.23;12.73;;;10.00;99.90;;;;;;6098978;23;20207;-80
2021/10/27 08:40:16;;;;;;;13.37;12.07;;;10.10;99.90;;;;;;6099225;23;20218;-81
2021/10/27 08:42:44;;;;;;;11.77;10.63;;;10.20;99.90;;;;;;6099343;23;20415;-80
2021/10/27 08:45:13;;;;;;;11.63;10.63;;;10.30;99.90;;;;;;6099153;23;20779;-81
2021/10/27 08:47:41;;;;;;;12.10;10.30;;;10.30;99.90;;;;;;6099442;23;20450;-80
2021/10/27 08:50:10;;;;;;;12.43;11.43;;;10.40;99.90;;;;;;6099241;23;20442;-80
2021/10/27 08:52:37;;;;;;;13.68;10.82;;;10.40;99.90;;;;;;6099265;23;20185;-81
2021/10/27 08:55:05;;;;;;;13.32;10.65;;;10.50;99.90;;;;;;6099241;23;20184;-81
2021/10/27 08:57:32;;;;;;;13.27;11.43;;;10.50;99.90;;;;;;6098850;23;20206;-80
2021/10/27 09:00:05;;;;;;;12.07;10.80;;;10.70;99.90;;;;;;6099540;23;20890;-81
2021/10/27 09:02:48;;;;;;;12.33;11.33;;;10.80;99.90;;;;;;6100209;23;20407;-80
2021/10/27 09:05:37;;;;;;;11.00;9.90;;;10.90;99.90;;;;;;6099694;23;20771;-81
2021/10/27 09:39:03;;;;;;;11.03;10.00;;;12.30;99.90;;;;;;6096969;23;20430;-82
2021/10/27 09:42:05;;;;;;;12.50;11.30;;;12.40;99.90;;;;;;6101662;23;20420;-81
2021/10/27 09:44:48;;;;;;;11.93;10.80;;;12.50;99.90;;;;;;6101971;23;20403;-80
2021/10/27 09:56:08;;;;;;;11.77;10.70;;;12.90;99.90;;;;;;6102624;23;20376;-81
2021/10/27 10:04:15;;;;;;;11.20;10.20;;;13.20;99.90;;;;;;6099204;23;20380;-81
2021/10/27 10:06:44;;;;;;;10.73;9.73;;;13.40;99.90;;;;;;6099106;23;20810;-81
2021/10/27 10:09:14;;;;;;;10.33;9.33;;;13.40;99.90;;;;;;6098798;23;20440;-80
2021/10/27 10:11:41;;;;;;;12.00;9.37;;;13.50;99.90;;;;;;6099339;23;20476;-81
2021/10/27 10:14:12;;;;;;;9.60;8.50;;;13.60;99.90;;;;;;6099002;23;20508;-82
2021/10/27 10:16:43;;;;;;;12.87;9.20;;;13.70;99.90;;;;;;6098615;23;20409;-81
2021/10/27 10:19:12;;;;;;;9.43;8.63;;;13.90;99.90;;;;;;6098245;23;20398;-80
2021/10/27 10:21:42;;;;;;;9.00;8.10;;;14.00;99.90;;;;;;6099447;23;20414;-81
2021/10/27 10:24:32;;;;;;;9.07;7.70;;;14.00;99.90;;;;;;6099276;23;20437;-81
2021/10/27 10:27:03;;;;;;;9.10;8.30;;;14.20;99.90;;;;;;6098100;23;20532;-80
2021/10/27 10:32:37;;;;;;;9.53;8.60;;;14.70;99.90;;;;;;6098290;23;20401;-81
2021/10/27 10:35:14;;;;;;;9.10;8.30;;;14.80;99.90;;;;;;6098875;23;20393;-81
2021/10/27 10:37:48;;;;;;;7.77;6.97;;;15.10;99.90;;;;;;6099311;23;20817;-81
2021/10/27 10:44:01;;;;;;;7.40;6.77;;;16.00;99.90;;;;;;6098437;23;21084;-80
2021/10/27 10:58:37;;;;;;;10.50;6.93;;;18.60;99.80;;;;;;6098652;23;20411;-82
2021/10/27 11:01:41;;;;;;;7.87;7.17;;;19.30;97.40;;;;;;6099938;23;20420;-78
2021/10/27 11:37:36;;;;;;;7.00;6.40;;;26.10;75.50;;;;;;6099626;23;20750;-82
2021/10/27 11:40:11;;;;;;;8.07;7.47;;;26.40;75.20;;;;;;6099969;23;20489;-82
2021/10/27 11:42:47;;;;;;;6.87;6.27;;;26.60;73.50;;;;;;6100619;23;20470;-81
2021/10/27 11:45:26;;;;;;;7.40;6.70;;;26.60;72.10;;;;;;6104899;23;20429;-79
2021/10/27 11:48:00;;;;;;;6.40;5.70;;;26.30;70.10;;;;;;6101102;23;20517;-83
2021/10/27 11:50:33;;;;;;;6.60;6.00;;;26.00;70.70;;;;;;6099310;23;20408;-82
2021/10/27 11:53:02;;;;;;;5.03;4.63;;;26.30;71.10;;;;;;6100109;23;20399;-82
2021/10/27 11:55:31;;;;;;;5.60;4.73;;;26.00;68.40;;;;;;6099829;23;20423;-82
2021/10/27 11:57:57;;;;;;;4.53;4.23;;;26.00;67.00;;;;;;6099546;23;20433;-81
2021/10/27 12:00:31;;;;;;;4.67;4.00;;;26.30;67.80;;;;;;6099959;23;20424;-81
2021/10/27 12:03:05;;;;;;;4.20;3.80;;;26.50;67.00;;;;;;6099799;23;20800;-81
2021/10/27 12:05:38;;;;;;;3.73;3.43;;;26.50;65.00;;;;;;6099109;23;20436;-81
2021/10/27 12:13:54;;;;;;;4.57;3.70;;;26.80;65.60;;;;;;6088704;23;20925;-80
2021/10/27 12:19:15;;;;;;;5.17;4.70;;;26.70;64.30;;;;;;6098870;23;20460;-82
2021/10/27 12:21:48;;;;;;;6.03;5.03;;;26.40;64.80;;;;;;6099451;23;20398;-81
2021/10/27 12:24:16;;;;;;;5.80;5.30;;;26.80;64.40;;;;;;6099422;23;20450;-82
2021/10/27 12:26:44;;;;;;;4.50;4.20;;;27.20;63.70;;;;;;6098928;23;20449;-82
2021/10/27 12:29:14;;;;;;;4.27;3.87;;;27.50;63.00;;;;;;6099465;23;20416;-82
2021/10/27 12:31:41;;;;;;;5.13;4.67;;;27.60;60.10;;;;;;6099384;23;20748;-82
2021/10/27 12:34:27;;;;;;;4.83;4.10;;;27.70;59.90;;;;;;6099252;23;20413;-82
2021/10/27 12:36:56;;;;;;;5.03;4.67;;;27.20;59.70;;;;;;6098690;23;20390;-84
2021/10/27 12:39:26;;;;;;;3.97;3.67;;;27.20;60.80;;;;;;6099362;23;20829;-82
2021/10/27 12:42:03;;;;;;;3.60;3.30;;;27.50;60.00;;;;;;6099531;23;20466;-82
2021/10/27 12:44:30;;;;;;;3.60;3.30;;;27.40;58.20;;;;;;6099446;23;20882;-82
2021/10/27 12:47:10;;;;;;;4.50;3.50;;;27.30;59.50;;;;;;6098392;23;20450;-82
2021/10/27 12:49:38;;;;;;;2.40;2.20;;;27.70;56.90;;;;;;6099208;23;20435;-82
2021/10/27 12:52:28;;;;;;;3.37;3.17;;;27.90;55.60;;;;;;6098975;23;20427;-82
2021/10/27 12:55:19;;;;;;;2.97;2.77;;;27.90;55.90;;;;;;6098925;23;20405;-82
2021/10/27 12:57:55;;;;;;;4.40;4.10;;;27.80;55.50;;;;;;6099035;23;20432;-82
2021/10/27 13:00:28;;;;;;;5.47;4.97;;;27.70;56.90;;;;;;6098611;23;20401;-82
2021/10/27 13:03:29;;;;;;;3.40;2.87;;;27.50;57.00;;;;;;6099013;23;20406;-82
2021/10/27 13:06:06;;;;;;;3.43;3.23;;;27.10;56.10;;;;;;6098154;23;21013;-80
2021/10/27 13:11:31;;;;;;;4.20;3.90;;;26.20;58.30;;;;;;6069573;23;20424;-81
2021/10/27 13:14:07;;;;;;;6.03;3.80;;;26.40;59.00;;;;;;6100397;23;20393;-82
2021/10/27 13:17:01;;;;;;;4.50;4.10;;;26.10;59.20;;;;;;6101268;23;20395;-81
2021/10/27 13:22:32;;;;;;;4.37;3.97;;;25.70;59.80;;;;;;6100982;23;20460;-81
2021/10/27 13:30:32;;;;;;;4.87;3.50;;;24.40;63.40;;;;;;6100715;23;20396;-81
2021/10/27 13:33:01;;;;;;;5.07;4.53;;;24.30;64.70;;;;;;6101176;23;20464;-81
2021/10/27 13:35:28;;;;;;;5.30;4.90;;;24.10;64.40;;;;;;6100491;23;20498;-81
2021/10/27 13:37:56;;;;;;;4.43;4.03;;;23.80;63.90;;;;;;6100105;23;20439;-81
2021/10/27 13:40:25;;;;;;;4.33;3.97;;;23.40;65.30;;;;;;6100417;23;21022;-81
2021/10/27 13:42:56;;;;;;;5.07;4.60;;;23.10;65.30;;;;;;6100814;23;20410;-81
2021/10/27 13:45:28;;;;;;;4.60;4.30;;;22.80;65.70;;;;;;6099594;23;20408;-80
2021/10/27 13:48:04;;;;;;;5.40;4.23;;;22.50;66.60;;;;;;6099778;23;20521;-81
2021/10/27 13:59:06;;;;;;;6.13;4.60;;;21.80;69.80;;;;;;6099659;23;20445;-81
2021/10/27 14:07:06;;;;;;;7.07;4.23;;;21.20;72.50;;;;;;6098905;23;20464;-81
2021/10/27 14:09:39;;;;;;;4.67;4.23;;;21.20;71.60;;;;;;6099765;23;20453;-81
2021/10/27 14:12:17;;;;;;;5.97;5.23;;;21.10;71.40;;;;;;6099700;23;20405;-82
2021/10/27 14:14:54;;;;;;;10.87;5.63;;;21.00;71.50;;;;;;6099737;23;20862;-82
2021/10/27 14:17:35;;;;;;;5.00;4.50;;;20.60;73.20;;;;;;6099410;23;20487;-81
2021/10/27 14:23:21;;;;;;;6.33;4.70;;;20.20;74.90;;;;;;6066990;23;20397;-82
2021/10/27 14:48:09;;;;;;;6.10;5.33;;;19.60;79.40;;;;;;6096587;23;20986;-81
2021/10/27 14:50:58;;;;;;;6.60;6.00;;;19.40;78.70;;;;;;6098054;23;20435;-81
2021/10/27 15:21:10;;;;;;;7.07;6.33;;;17.60;85.20;;;;;;6097973;23;20431;-81
2021/10/27 15:23:45;;;;;;;6.83;6.10;;;17.60;85.80;;;;;;6097816;23;20404;-81
2021/10/27 15:29:06;;;;;;;7.07;6.37;;;17.30;87.10;;;;;;6097776;23;20415;-82
2021/10/27 15:31:54;;;;;;;6.23;5.07;;;17.20;87.90;;;;;;6098437;23;20408;-81
2021/10/27 15:34:45;;;;;;;8.70;5.60;;;17.20;88.30;;;;;;6098311;23;20399;-81
2021/10/27 15:42:55;;;;;;;4.47;4.07;;;16.60;89.80;;;;;;6098611;23;20417;-81
2021/10/27 15:50:28;;;;;;;5.27;4.80;;;16.40;90.20;;;;;;6097915;23;20476;-81
2021/10/27 15:51:29;;;;;;;6.77;5.33;;;16.00;91.10;;;;;;6097027;23;20500;-84
2021/10/27 15:54:17;;;;;;;5.43;4.93;;;15.90;91.10;;;;;;6096665;23;20413;-82
2021/10/27 15:59:41;;;;;;;6.63;5.90;;;15.70;91.70;;;;;;6097555;23;20460;-83
2021/10/27 16:02:09;;;;;;;5.33;4.93;;;15.40;92.30;;;;;;6103444;23;20603;-85
2021/10/27 16:05:17;;;;;;;5.93;4.97;;;15.20;92.70;;;;;;6107418;23;20453;-85
2021/10/27 16:08:17;;;;;;;5.23;4.07;;;15.20;92.90;;;;;;6082421;23;20453;-83
2021/10/27 16:14:31;;;;;;;5.33;4.80;;;15.00;93.50;;;;;;6090009;23;20433;-85
2021/10/27 16:19:41;;;;;;;5.50;4.07;;;14.60;94.10;;;;;;6068508;23;21098;-82
2021/10/27 16:22:09;;;;;;;4.40;4.00;;;14.50;94.40;;;;;;6072799;23;20409;-85
2021/10/27 16:24:38;;;;;;;4.70;4.33;;;14.40;94.50;;;;;;6104446;23;20799;-84
2021/10/27 16:27:05;;;;;;;4.63;4.23;;;14.30;94.70;;;;;;6103507;23;20475;-84
2021/10/27 16:29:32;;;;;;;4.37;4.07;;;14.20;95.10;;;;;;6106400;23;20413;-85
2021/10/27 16:31:58;;;;;;;4.60;4.07;;;14.20;95.40;;;;;;6109502;23;20427;-85
2021/10/27 16:34:25;;;;;;;4.23;3.93;;;14.00;95.60;;;;;;6108314;23;20483;-84
2021/10/27 16:36:52;;;;;;;6.10;5.50;;;13.80;96.00;;;;;;6109034;23;20415;-84
2021/10/27 17:13:12;;;;;;;7.70;5.90;;;12.50;99.90;;;;;;6006608;23;20390;-85
2021/10/27 17:22:26;;;;;;;5.40;5.00;;;12.30;99.90;;;;;;5845707;24;20957;-83
2021/10/27 17:31:49;;;;;;;7.00;4.70;;;12.00;99.90;;;;;;5077413;27;20509;-85